createdAt,value
2018-02-27T00:01:53.318Z,29.12
2018-02-27T00:04:28.836Z,40.95
2018-02-27T00:07:03.487Z,55.08
2018-02-27T00:09:38.789Z,55.97
2018-02-27T00:12:12.625Z,69.60
2018-02-27T00:14:46.466Z,35.33
2018-02-27T00:17:21.038Z,52.72
2018-02-27T00:19:54.655Z,28.73
2018-02-27T00:22:29.331Z,35.72
2018-02-27T00:25:03.359Z,27.77
2018-02-27T00:27:37.140Z,27.83
2018-02-27T00:30:10.888Z,30.33
2018-02-27T00:32:44.636Z,32.10
2018-02-27T00:35:19.039Z,28.33
2018-02-27T00:37:52.705Z,37.17
2018-02-27T00:40:26.436Z,26.62
2018-02-27T00:43:00.909Z,23.00
2018-02-27T00:45:34.525Z,27.13
2018-02-27T00:48:09.914Z,37.10
2018-02-27T00:50:43.796Z,38.90
2018-02-27T00:53:19.133Z,25.45
2018-02-27T00:55:53.909Z,37.50
2018-02-27T01:01:25.430Z,40.15
2018-02-27T01:03:59.965Z,24.90
2018-02-27T01:06:33.737Z,44.25
2018-02-27T01:09:08.115Z,42.90
2018-02-27T01:11:41.843Z,35.35
2018-02-27T01:14:16.461Z,29.15
2018-02-27T01:16:50.254Z,45.15
2018-02-27T01:19:24.965Z,34.42
2018-02-27T01:21:58.588Z,34.55
2018-02-27T01:24:33.020Z,40.20
2018-02-27T01:27:07.498Z,27.23
2018-02-27T01:29:41.267Z,37.10
2018-02-27T01:32:15.630Z,25.05
2018-02-27T01:34:49.489Z,36.95
2018-02-27T01:37:23.387Z,23.58
2018-02-27T01:39:58.376Z,26.25
2018-02-27T01:42:32.221Z,34.78
2018-02-27T01:45:05.973Z,34.95
2018-02-27T01:47:40.488Z,30.58
2018-02-27T01:50:15.085Z,24.50
2018-02-27T01:52:48.805Z,38.50
2018-02-27T01:55:22.573Z,28.38
2018-02-27T01:57:56.318Z,33.13
2018-02-27T02:00:31.414Z,26.90
2018-02-27T02:03:05.073Z,26.00
2018-02-27T02:05:38.829Z,42.78
2018-02-27T02:08:12.504Z,27.60
2018-02-27T02:10:46.193Z,27.20
2018-02-27T02:13:19.878Z,24.10
2018-02-27T02:15:53.519Z,23.92
2018-02-27T02:18:27.189Z,33.15
2018-02-27T02:21:01.684Z,61.92
2018-02-27T02:23:35.406Z,81.28
2018-02-27T02:26:09.103Z,77.75
2018-02-27T02:28:42.894Z,43.78
2018-02-27T02:31:17.537Z,35.80
2018-02-27T02:33:51.264Z,39.50
2018-02-27T02:36:24.996Z,28.45
2018-02-27T02:38:59.038Z,32.03
2018-02-27T02:41:32.673Z,36.72
2018-02-27T02:44:06.286Z,27.73
2018-02-27T02:46:40.122Z,37.78
2018-02-27T02:49:13.929Z,27.85
2018-02-27T02:51:48.413Z,29.50
2018-02-27T02:54:22.079Z,43.20
2018-02-27T02:56:57.345Z,48.42
2018-02-27T02:59:30.955Z,62.10
2018-02-27T03:02:04.770Z,52.83
2018-02-27T03:04:38.495Z,78.53
2018-02-27T03:07:13.018Z,54.15
2018-02-27T03:09:47.465Z,48.42
2018-02-27T03:12:21.123Z,52.35
2018-02-27T03:14:54.868Z,62.20
2018-02-27T03:17:28.603Z,75.65
2018-02-27T03:20:02.462Z,57.40
2018-02-27T03:22:37.800Z,67.20
2018-02-27T03:25:12.338Z,45.65
2018-02-27T03:27:48.478Z,37.42
2018-02-27T03:30:22.240Z,61.65
2018-02-27T03:32:56.580Z,77.07
2018-02-27T03:35:31.995Z,62.42
2018-02-27T03:38:05.663Z,103.82
2018-02-27T03:40:41.195Z,96.40
2018-02-27T03:43:16.187Z,120.45
2018-02-27T03:45:49.956Z,131.68
2018-02-27T03:48:23.674Z,152.77
2018-02-27T03:50:58.230Z,199.12
2018-02-27T03:53:32.647Z,141.98
2018-02-27T03:56:06.435Z,68.95
2018-02-27T03:58:40.991Z,51.97
2018-02-27T04:01:14.613Z,80.28
2018-02-27T04:03:48.965Z,55.12
2018-02-27T04:06:22.514Z,52.20
2018-02-27T04:08:56.805Z,75.68
2018-02-27T04:11:31.263Z,77.85
2018-02-27T04:14:04.956Z,75.32
2018-02-27T04:16:39.886Z,67.07
2018-02-27T04:19:13.585Z,72.45
2018-02-27T04:21:49.163Z,55.67
2018-02-27T04:24:22.994Z,42.30
2018-02-27T04:26:58.526Z,41.10
2018-02-27T04:29:32.205Z,46.85
2018-02-27T04:32:05.786Z,74.35
2018-02-27T04:34:39.553Z,56.45
2018-02-27T04:37:13.333Z,71.25
2018-02-27T04:39:47.677Z,78.30
2018-02-27T04:42:22.025Z,67.50
2018-02-27T04:44:56.375Z,77.72
2018-02-27T04:47:30.182Z,102.10
2018-02-27T04:50:03.942Z,94.35
2018-02-27T04:52:37.654Z,87.60
2018-02-27T04:55:11.259Z,80.22
2018-02-27T04:57:44.995Z,108.75
2018-02-27T05:00:18.700Z,101.57
2018-02-27T05:02:52.422Z,61.22
2018-02-27T05:05:26.632Z,52.47
2018-02-27T05:08:01.806Z,31.77
2018-02-27T05:10:35.719Z,35.03
2018-02-27T05:13:09.466Z,39.13
2018-02-27T05:15:43.270Z,60.20
2018-02-27T05:18:16.918Z,65.28
2018-02-27T05:20:51.227Z,63.03
2018-02-27T05:23:24.834Z,56.70
2018-02-27T05:25:58.475Z,52.35
2018-02-27T05:28:32.920Z,42.22
2018-02-27T05:31:07.409Z,35.70
2018-02-27T05:33:42.056Z,24.35
2018-02-27T05:36:16.516Z,38.42
2018-02-27T05:38:51.075Z,42.50
2018-02-27T05:41:24.924Z,37.88
2018-02-27T05:43:58.696Z,39.28
2018-02-27T05:46:32.422Z,37.30
2018-02-27T05:49:06.983Z,43.60
2018-02-27T05:51:42.582Z,36.20
2018-02-27T05:54:16.438Z,43.55
2018-02-27T05:56:50.192Z,37.67
2018-02-27T05:59:24.040Z,34.35
2018-02-27T06:01:58.638Z,38.05
2018-02-27T06:04:33.103Z,25.25
2018-02-27T06:07:06.925Z,25.95
2018-02-27T06:09:41.430Z,24.55
2018-02-27T06:12:15.322Z,34.92
2018-02-27T06:14:48.977Z,26.52
2018-02-27T06:17:22.815Z,30.17
2018-02-27T06:19:56.458Z,26.58
2018-02-27T06:22:31.022Z,29.37
2018-02-27T06:25:04.786Z,31.45
2018-02-27T06:27:38.527Z,63.13
2018-02-27T06:30:12.338Z,76.12
2018-02-27T06:32:46.003Z,67.10
2018-02-27T06:35:19.600Z,37.47
2018-02-27T06:37:56.357Z,36.70
2018-02-27T06:40:30.802Z,35.45
2018-02-27T06:43:05.310Z,29.55
2018-02-27T06:45:39.098Z,41.53
2018-02-27T06:48:12.834Z,63.25
2018-02-27T06:50:46.805Z,78.10
2018-02-27T06:53:20.548Z,62.38
2018-02-27T06:55:55.091Z,32.25
2018-02-27T06:58:29.516Z,47.25
2018-02-27T07:01:04.972Z,26.50
2018-02-27T07:03:38.633Z,38.85
2018-02-27T07:06:12.265Z,31.92
2018-02-27T07:08:46.889Z,37.20
2018-02-27T07:11:20.640Z,25.55
2018-02-27T07:13:54.984Z,24.17
2018-02-27T07:16:28.564Z,39.35
2018-02-27T07:19:02.372Z,30.92
2018-02-27T07:21:36.939Z,40.00
2018-02-27T07:24:11.639Z,32.90
2018-02-27T07:26:45.980Z,39.92
2018-02-27T07:29:19.650Z,36.72
2018-02-27T07:31:54.006Z,46.45
2018-02-27T07:34:27.818Z,28.20
2018-02-27T07:37:02.420Z,37.03
2018-02-27T07:39:37.730Z,28.83
2018-02-27T07:42:11.383Z,23.02
2018-02-27T07:44:45.279Z,35.70
2018-02-27T07:47:19.101Z,23.52
2018-02-27T07:49:52.898Z,33.92
2018-02-27T07:52:26.756Z,40.28
2018-02-27T07:55:00.608Z,44.03
2018-02-27T07:57:34.532Z,59.97
2018-02-27T08:00:08.339Z,55.03
2018-02-27T08:02:42.186Z,82.25
2018-02-27T08:05:16.012Z,37.78
2018-02-27T08:07:49.753Z,38.53
2018-02-27T08:10:24.209Z,30.65
2018-02-27T08:12:58.005Z,30.77
2018-02-27T08:15:31.994Z,29.65
2018-02-27T08:18:05.593Z,26.50
2018-02-27T08:20:39.290Z,28.02
2018-02-27T08:23:12.889Z,35.63
2018-02-27T08:25:46.622Z,43.05
2018-02-27T08:28:21.200Z,31.08
2018-02-27T08:30:54.963Z,36.17
2018-02-27T08:33:28.676Z,26.33
2018-02-27T08:36:02.421Z,32.45
2018-02-27T08:38:36.778Z,37.92
2018-02-27T08:41:11.184Z,27.87
2018-02-27T08:43:45.577Z,28.40
2018-02-27T08:46:20.040Z,29.70
2018-02-27T08:48:53.809Z,35.40
2018-02-27T08:51:27.460Z,32.78
2018-02-27T08:54:01.315Z,23.58
2018-02-27T08:56:35.899Z,38.42
2018-02-27T08:59:09.721Z,37.97
2018-02-27T09:01:44.215Z,56.47
2018-02-27T09:04:18.743Z,61.42
2018-02-27T09:06:52.573Z,64.93
2018-02-27T09:09:26.309Z,32.33
2018-02-27T09:12:00.106Z,35.15
2018-02-27T09:14:34.297Z,29.52
2018-02-27T09:17:08.741Z,31.77
2018-02-27T09:19:43.224Z,22.30
2018-02-27T09:22:16.980Z,27.13
2018-02-27T09:24:51.279Z,25.65
2018-02-27T09:27:25.002Z,25.75
2018-02-27T09:29:58.718Z,33.65
2018-02-27T09:32:32.432Z,35.75
2018-02-27T09:35:06.291Z,28.83
2018-02-27T09:37:39.893Z,29.52
2018-02-27T09:40:14.403Z,27.27
2018-02-27T09:42:48.943Z,27.60
2018-02-27T09:45:22.781Z,34.22
2018-02-27T09:47:57.254Z,43.97
2018-02-27T09:50:31.086Z,41.60
2018-02-27T09:53:04.871Z,26.05
2018-02-27T09:55:38.541Z,36.17
2018-02-27T09:58:12.278Z,32.65
2018-02-27T10:00:46.158Z,38.63
2018-02-27T10:03:19.895Z,31.70
2018-02-27T10:05:54.489Z,28.58
2018-02-27T10:08:28.194Z,55.85
2018-02-27T10:11:02.086Z,81.18
2018-02-27T10:13:36.607Z,51.13
2018-02-27T10:16:10.322Z,38.17
2018-02-27T10:18:44.119Z,37.92
2018-02-27T10:21:18.719Z,38.83
2018-02-27T10:23:52.479Z,28.62
2018-02-27T10:26:26.195Z,36.75
2018-02-27T10:28:59.849Z,27.10
2018-02-27T10:31:33.562Z,33.10
2018-02-27T10:34:07.866Z,34.13
2018-02-27T10:36:41.536Z,38.38
2018-02-27T10:39:15.118Z,40.25
2018-02-27T10:41:50.534Z,53.50
2018-02-27T10:44:24.344Z,44.17
2018-02-27T10:46:58.149Z,32.15
2018-02-27T10:49:32.030Z,39.45
2018-02-27T10:52:06.589Z,33.75
2018-02-27T10:54:40.138Z,34.38
2018-02-27T10:57:14.037Z,32.35
2018-02-27T10:59:47.858Z,32.50
2018-02-27T11:02:22.476Z,42.83
2018-02-27T11:04:56.190Z,24.20
2018-02-27T11:07:30.029Z,38.15
2018-02-27T11:10:03.886Z,31.12
2018-02-27T11:12:38.424Z,48.08
2018-02-27T11:15:12.181Z,71.72
2018-02-27T11:17:46.008Z,118.15
2018-02-27T11:20:20.585Z,82.32
2018-02-27T11:22:54.330Z,45.08
2018-02-27T11:25:27.902Z,41.03
2018-02-27T11:28:01.663Z,36.65
2018-02-27T11:30:35.430Z,30.15
2018-02-27T11:33:09.225Z,43.20
2018-02-27T11:35:43.679Z,42.50
2018-02-27T11:38:17.470Z,31.62
2018-02-27T11:40:51.205Z,46.47
2018-02-27T11:43:24.901Z,31.85
2018-02-27T11:45:58.764Z,24.37
2018-02-27T11:48:32.525Z,23.02
2018-02-27T11:51:06.355Z,32.17
2018-02-27T11:53:40.091Z,32.35
2018-02-27T11:56:13.772Z,39.72
2018-02-27T11:58:48.391Z,38.22
2018-02-27T12:01:22.918Z,49.28
2018-02-27T12:03:56.784Z,27.98
2018-02-27T12:06:30.588Z,34.80
2018-02-27T12:09:04.271Z,42.10
2018-02-27T12:11:37.946Z,31.55
2018-02-27T12:14:11.572Z,24.45
2018-02-27T12:16:46.152Z,30.83
2018-02-27T12:19:19.795Z,49.28
2018-02-27T12:21:53.726Z,61.75
2018-02-27T12:24:28.291Z,83.07
2018-02-27T12:27:02.052Z,64.00
2018-02-27T12:29:35.856Z,42.45
2018-02-27T12:32:09.535Z,46.35
2018-02-27T12:34:43.356Z,27.50
2018-02-27T12:37:17.218Z,25.35
2018-02-27T12:39:50.801Z,45.55
2018-02-27T12:42:25.398Z,34.70
2018-02-27T12:44:59.075Z,30.30
2018-02-27T12:47:33.591Z,28.12
2018-02-27T12:50:07.172Z,33.10
2018-02-27T12:52:40.893Z,24.50
2018-02-27T12:55:14.478Z,29.92
2018-02-27T12:57:48.047Z,23.23
2018-02-27T13:00:22.723Z,27.17
2018-02-27T13:02:56.370Z,28.85
2018-02-27T13:05:30.053Z,28.27
2018-02-27T13:08:03.941Z,32.60
2018-02-27T13:10:37.663Z,27.65
2018-02-27T13:13:11.625Z,25.67
2018-02-27T13:15:46.212Z,24.10
2018-02-27T13:18:20.770Z,37.92
2018-02-27T13:20:54.529Z,26.87
2018-02-27T13:23:28.260Z,44.63
2018-02-27T13:26:02.757Z,57.55
2018-02-27T13:28:36.634Z,89.80
2018-02-27T13:31:11.175Z,62.00
2018-02-27T13:33:44.774Z,54.60
2018-02-27T13:36:19.350Z,33.53
2018-02-27T13:38:53.180Z,38.45
2018-02-27T13:41:26.854Z,21.30
2018-02-27T13:44:01.427Z,58.15
2018-02-27T13:46:35.201Z,25.90
2018-02-27T13:49:10.714Z,33.13
2018-02-27T13:51:44.458Z,37.35
2018-02-27T13:54:18.166Z,29.55
2018-02-27T13:56:52.757Z,25.37
2018-02-27T13:59:26.428Z,21.85
2018-02-27T14:02:00.232Z,26.92
2018-02-27T14:04:33.860Z,20.90
2018-02-27T14:07:07.575Z,32.03
2018-02-27T14:09:41.360Z,30.95
2018-02-27T14:12:15.079Z,17.17
2018-02-27T14:14:49.545Z,22.77
2018-02-27T14:17:23.370Z,22.40
2018-02-27T14:19:57.166Z,26.35
2018-02-27T14:22:31.004Z,44.63
2018-02-27T14:25:04.824Z,26.58
2018-02-27T14:27:38.602Z,29.95
2018-02-27T14:30:13.194Z,49.38
2018-02-27T14:32:47.066Z,104.12
2018-02-27T14:35:20.812Z,53.30
2018-02-27T14:37:54.451Z,55.60
2018-02-27T14:40:28.199Z,29.77
2018-02-27T14:43:02.034Z,46.58
2018-02-27T14:45:35.814Z,28.02
2018-02-27T14:48:10.246Z,24.83
2018-02-27T14:50:44.651Z,23.90
2018-02-27T14:53:19.027Z,33.47
2018-02-27T14:55:52.783Z,35.03
2018-02-27T14:58:26.564Z,24.35
2018-02-27T15:01:00.211Z,24.33
2018-02-27T15:03:34.022Z,30.25
2018-02-27T15:06:07.893Z,27.10
2018-02-27T15:08:41.647Z,23.90
2018-02-27T15:11:15.544Z,23.15
2018-02-27T15:13:50.193Z,15.93
2018-02-27T15:16:23.850Z,28.38
2018-02-27T15:18:57.717Z,33.08
2018-02-27T15:21:31.539Z,16.65
2018-02-27T15:24:06.193Z,25.40
2018-02-27T15:26:39.916Z,19.73
2018-02-27T15:29:14.398Z,26.95
2018-02-27T15:31:49.007Z,37.65
2018-02-27T15:34:22.681Z,32.13
2018-02-27T15:36:56.483Z,52.20
2018-02-27T15:39:31.141Z,87.18
2018-02-27T15:42:05.027Z,53.13
2018-02-27T15:44:38.787Z,40.85
2018-02-27T15:47:12.424Z,26.45
2018-02-27T15:49:46.142Z,30.08
2018-02-27T15:52:20.620Z,39.60
2018-02-27T15:54:54.414Z,29.33
2018-02-27T15:57:28.600Z,15.48
2018-02-27T16:00:03.169Z,19.23
2018-02-27T16:02:37.716Z,28.08
2018-02-27T16:05:11.445Z,39.53
2018-02-27T16:07:45.082Z,15.98
2018-02-27T16:10:18.819Z,16.55
2018-02-27T16:12:53.309Z,21.95
2018-02-27T16:15:27.847Z,24.75
2018-02-27T16:18:01.706Z,25.10
2018-02-27T16:20:35.628Z,24.85
2018-02-27T16:23:09.318Z,25.25
2018-02-27T16:25:43.080Z,17.87
2018-02-27T16:28:17.648Z,20.35
2018-02-27T16:30:52.024Z,16.25
2018-02-27T16:33:25.718Z,34.10
2018-02-27T16:35:59.299Z,23.87
2018-02-27T16:38:33.992Z,32.20
2018-02-27T16:41:07.613Z,35.17
2018-02-27T16:43:41.992Z,56.70
2018-02-27T16:46:17.606Z,45.40
2018-02-27T16:48:51.782Z,45.08
2018-02-27T16:51:26.189Z,38.47
2018-02-27T16:53:59.770Z,25.88
2018-02-27T16:56:34.371Z,17.52
2018-02-27T16:59:08.100Z,22.40
2018-02-27T17:01:41.907Z,18.23
2018-02-27T17:04:15.600Z,31.00
2018-02-27T17:06:50.252Z,30.85
2018-02-27T17:09:24.522Z,33.63
2018-02-27T17:11:58.230Z,32.63
2018-02-27T17:14:32.936Z,26.75
2018-02-27T17:17:06.610Z,39.58
2018-02-27T17:19:40.428Z,31.35
2018-02-27T17:22:14.783Z,21.35
2018-02-27T17:24:48.620Z,15.43
2018-02-27T17:27:23.110Z,21.55
2018-02-27T17:29:56.911Z,34.85
2018-02-27T17:32:31.375Z,25.42
2018-02-27T17:35:05.193Z,37.50
2018-02-27T17:37:38.990Z,27.25
2018-02-27T17:40:12.828Z,20.45
2018-02-27T17:42:46.637Z,22.75
2018-02-27T17:45:20.540Z,47.50
2018-02-27T17:47:54.313Z,72.70
2018-02-27T17:50:28.110Z,71.05
2018-02-27T17:53:01.870Z,52.30
2018-02-27T17:55:35.706Z,50.95
2018-02-27T17:58:09.608Z,21.35
2018-02-27T18:00:44.434Z,18.05
2018-02-27T18:03:18.915Z,28.90
2018-02-27T18:05:56.592Z,34.83
2018-02-27T18:08:32.437Z,47.92
2018-02-27T18:11:06.858Z,25.60
2018-02-27T18:13:41.953Z,33.05
2018-02-27T18:16:16.490Z,37.15
2018-02-27T18:18:50.219Z,27.85
2018-02-27T18:21:25.028Z,53.28
2018-02-27T18:23:59.354Z,28.38
2018-02-27T18:26:33.811Z,30.62
2018-02-27T18:29:08.386Z,34.83
2018-02-27T18:31:42.120Z,49.55
2018-02-27T18:34:17.902Z,31.35
2018-02-27T18:36:51.803Z,21.58
2018-02-27T18:39:25.409Z,36.42
2018-02-27T18:42:00.024Z,25.60
2018-02-27T18:44:33.728Z,28.00
2018-02-27T18:47:08.743Z,23.23
2018-02-27T18:49:44.131Z,24.25
2018-02-27T18:52:17.747Z,28.62
2018-02-27T18:54:52.288Z,29.80
2018-02-27T18:57:25.979Z,63.22
2018-02-27T18:59:59.727Z,89.30
2018-02-27T19:02:33.428Z,128.00
2018-02-27T19:05:07.044Z,70.07
2018-02-27T19:07:40.764Z,47.10
2018-02-27T19:10:14.502Z,33.58
2018-02-27T19:12:48.265Z,21.58
2018-02-27T19:15:22.942Z,41.53
2018-02-27T19:17:56.544Z,16.30
2018-02-27T19:20:30.118Z,35.00
2018-02-27T19:23:03.873Z,29.92
2018-02-27T19:25:37.529Z,25.02
2018-02-27T19:28:11.161Z,25.62
2018-02-27T19:30:44.891Z,33.58
2018-02-27T19:33:18.705Z,28.35
2018-02-27T19:35:53.084Z,25.90
2018-02-27T19:38:26.685Z,24.20
2018-02-27T19:41:00.286Z,22.87
2018-02-27T19:43:33.902Z,23.65
2018-02-27T19:46:09.141Z,31.30
2018-02-27T19:48:42.854Z,29.30
2018-02-27T19:51:16.638Z,25.85
2018-02-27T19:53:50.361Z,36.30
2018-02-27T19:56:24.140Z,24.95
2018-02-27T19:58:57.790Z,37.20
2018-02-27T20:01:31.683Z,25.48
2018-02-27T20:04:06.016Z,28.48
2018-02-27T20:06:40.747Z,29.55
2018-02-27T20:09:14.546Z,47.20
2018-02-27T20:11:48.270Z,77.28
2018-02-27T20:14:27.622Z,57.28
2018-02-27T20:17:01.267Z,43.03
2018-02-27T20:19:34.979Z,29.70
2018-02-27T20:22:09.350Z,16.35
2018-02-27T20:24:42.928Z,25.85
2018-02-27T20:27:17.405Z,33.60
2018-02-27T20:29:51.095Z,35.25
2018-02-27T20:32:24.662Z,28.52
2018-02-27T20:34:58.222Z,26.55
2018-02-27T20:37:32.019Z,32.67
2018-02-27T20:40:06.516Z,30.27
2018-02-27T20:42:40.098Z,22.13
2018-02-27T20:45:13.809Z,48.70
2018-02-27T20:47:47.423Z,28.60
2018-02-27T20:50:21.022Z,47.28
2018-02-27T20:52:54.839Z,30.88
2018-02-27T20:55:28.637Z,25.10
2018-02-27T20:58:03.186Z,37.33
2018-02-27T21:00:36.843Z,33.70
2018-02-27T21:03:10.432Z,28.75
2018-02-27T21:05:44.184Z,41.10
2018-02-27T21:08:18.060Z,41.67
2018-02-27T21:10:51.835Z,90.30
2018-02-27T21:13:25.618Z,42.38
2018-02-27T21:15:59.318Z,31.87
2018-02-27T21:18:32.986Z,67.50
2018-02-27T21:21:06.666Z,76.53
2018-02-27T21:23:40.433Z,140.95
2018-02-27T21:26:14.212Z,107.97
2018-02-27T21:28:48.889Z,38.65
2018-02-27T21:31:22.711Z,97.57
2018-02-27T21:33:56.568Z,63.28
2018-02-27T21:36:30.350Z,38.30
2018-02-27T21:39:04.014Z,44.63
2018-02-27T21:41:37.763Z,31.37
2018-02-27T21:44:11.498Z,58.53
2018-02-27T21:46:45.208Z,28.42
2018-02-27T21:49:19.015Z,29.65
2018-02-27T21:51:52.807Z,27.15
2018-02-27T21:54:26.757Z,18.67
2018-02-27T21:57:00.540Z,40.00
2018-02-27T21:59:34.391Z,26.02
2018-02-27T22:02:08.915Z,34.72
2018-02-27T22:04:42.523Z,54.45
2018-02-27T22:07:16.170Z,29.53
2018-02-27T22:09:50.531Z,29.25
2018-02-27T22:12:25.174Z,23.48
2018-02-27T22:14:58.763Z,47.55
2018-02-27T22:17:35.211Z,69.97
2018-02-27T22:20:09.034Z,40.35
2018-02-27T22:22:43.516Z,47.25
2018-02-27T22:25:17.763Z,43.80
2018-02-27T22:27:51.592Z,50.38
2018-02-27T22:30:25.437Z,53.90
2018-02-27T22:32:59.197Z,60.22
2018-02-27T22:35:33.024Z,50.30
2018-02-27T22:38:06.778Z,33.55
2018-02-27T22:40:40.625Z,37.55
2018-02-27T22:43:14.213Z,39.15
2018-02-27T22:45:47.907Z,36.47
2018-02-27T22:48:21.490Z,35.63
2018-02-27T22:50:55.068Z,40.90
2018-02-27T22:53:28.850Z,25.25
2018-02-27T22:56:02.502Z,22.92
2018-02-27T22:58:36.176Z,37.22
2018-02-27T23:01:09.954Z,49.45
2018-02-27T23:03:43.718Z,44.03
2018-02-27T23:06:17.413Z,36.97
2018-02-27T23:08:51.014Z,36.10
2018-02-27T23:11:24.896Z,37.10
2018-02-27T23:13:58.669Z,44.42
2018-02-27T23:16:32.891Z,45.10
2018-02-27T23:19:06.701Z,55.47
2018-02-27T23:21:40.498Z,47.85
2018-02-27T23:24:16.969Z,30.25
2018-02-27T23:26:51.352Z,21.37
2018-02-27T23:29:27.504Z,43.13
2018-02-27T23:32:01.495Z,38.47
2018-02-27T23:34:43.200Z,46.72
2018-02-27T23:37:17.639Z,64.50
2018-02-27T23:39:51.353Z,43.33
2018-02-27T23:42:25.070Z,54.63
2018-02-27T23:44:59.138Z,24.70
2018-02-27T23:47:32.833Z,20.62
2018-02-27T23:50:06.774Z,27.00
2018-02-27T23:52:40.659Z,35.00
2018-02-27T23:55:14.423Z,16.80
2018-02-27T23:57:48.234Z,24.10
